NORTHEAST SUFFOLK  -  Winter Weather Advisory Winter Weather Advisory        NORTHERN NASSAU  -  Winter Weather Advisory Winter Weather Advisory        NORTHWEST SUFFOLK  -  Winter Weather Advisory Winter Weather Advisory        SOUTHEAST SUFFOLK  -  Winter Weather Advisory Winter Weather Advisory        SOUTHERN NASSAU  -  Winter Weather Advisory Winter Weather Advisory        SOUTHWEST SUFFOLK  -  Winter Weather Advisory Winter Weather Advisory      

Active alerts

Northern Nassau
  Details for Northern Nassau Winter Weather Advisory
Southern Nassau
  Details for Southern Nassau Winter Weather Advisory
Northwest Suffolk
  Details for Northwest Suffolk Winter Weather Advisory
Southwest Suffolk
  Details for Southwest Suffolk Winter Weather Advisory
Northeast Suffolk
  Details for Northeast Suffolk Winter Weather Advisory
Southeast Suffolk
  Details for Southeast Suffolk Winter Weather Advisory


WXM80 ListenWXM80 Stop

You find our weather info also at:

UK Metoffice

WeatherCloud

Weather Underground

Northeastern Weather Network

AWEKAS

Citizen Weather Observer Program (CWOP)

HAMweather, WeatherForYou, PWS Weather


Weather Underground History page Text

Daily Summary for June 20, 2017 Units:  Metric    English   Both
« Previous Day
Next Day »
Daily Weekly Monthly Yearly Custom
  High: Low: Average:
Temperature: 31.7 °C 20.7 °C 25.2 °C
Dew Point: 22.7 °C 13.9 °C 18.4 °C
Humidity: 98 % 36 % 70 %
Wind Speed: 14.2 km/h 0 km/h 3.9 km/h
Wind Gust: 25.9 km/h - -
Wind:- - WSW
Pressure: 1012.8 hPa 1008.4 hPa -
Precipitation: 0.51 mm    
Historical Graphs
 
 
Tabular Data for June 20, 2017
Time Temperature Dew Point Pressure Wind Wind Speed Wind Gust Humidity Rainfall Rate (Hourly)
00:01 20.7 °C 20.2 °C 1010.4 hPa SSW 2.1 km/h 4.8 km/h 97 % 0 mm
00:07 20.7 °C 20.2 °C 1010.4 hPa South 2.9 km/h 11.1 km/h 97 % 0 mm
00:11 20.7 °C 20.2 °C 1010.4 hPa South 0.5 km/h 5.6 km/h 97 % 0 mm
00:17 20.7 °C 20.2 °C 1010.4 hPa SSE 3.2 km/h 7.4 km/h 97 % 0 mm
00:22 20.7 °C 20.2 °C 1010.4 hPa South 1.3 km/h 7.4 km/h 97 % 0 mm
00:27 20.7 °C 20.2 °C 1009.7 hPa SW 6.9 km/h 18.5 km/h 97 % 0 mm
00:32 20.8 °C 20.3 °C 1009.7 hPa SW 1.9 km/h 5.6 km/h 97 % 0 mm
00:37 20.8 °C 20.3 °C 1009.7 hPa SW 1 km/h 5.6 km/h 97 % 0 mm
00:42 20.8 °C 20.3 °C 1009.7 hPa SW 3.5 km/h 7.4 km/h 97 % 0 mm
00:47 20.8 °C 20.3 °C 1009.4 hPa SW 0.5 km/h 5.6 km/h 97 % 0 mm
00:52 20.8 °C 20.3 °C 1009.4 hPa SSE 1.8 km/h 5.6 km/h 97 % 0 mm
00:57 20.8 °C 20.3 °C 1009.4 hPa South 2.1 km/h 5.6 km/h 97 % 0.25 mm
01:02 20.8 °C 20.3 °C 1009.4 hPa SSW 0.2 km/h 1.9 km/h 97 % 0.25 mm
01:07 20.8 °C 20.3 °C 1009.4 hPa South 0.5 km/h 5.6 km/h 97 % 0.25 mm
01:12 20.8 °C 20.3 °C 1009.4 hPa SE 1.8 km/h 7.4 km/h 97 % 0.25 mm
01:17 20.9 °C 20.4 °C 1009.4 hPa South 2.7 km/h 4.8 km/h 97 % 0.25 mm
01:22 20.9 °C 20.4 °C 1009.4 hPa SE 2.3 km/h 5.6 km/h 97 % 0.25 mm
01:27 20.9 °C 20.4 °C 1009 hPa WSW 3.1 km/h 6.4 km/h 97 % 0.25 mm
01:32 20.9 °C 20.4 °C 1009 hPa SSW 2.3 km/h 8 km/h 97 % 0.25 mm
01:38 20.9 °C 20.4 °C 1009 hPa SW 2.3 km/h 9.3 km/h 97 % 0.25 mm
01:43 20.9 °C 20.4 °C 1009 hPa SW 3.4 km/h 11.1 km/h 97 % 0.25 mm
01:48 21 °C 20.5 °C 1009 hPa SW 1.8 km/h 5.6 km/h 97 % 0.25 mm
01:53 21 °C 20.5 °C 1009 hPa SSW 2.1 km/h 7.4 km/h 97 % 0.25 mm
01:58 21 °C 20.5 °C 1009 hPa WSW 1.4 km/h 5.6 km/h 97 % 0 mm
02:03 21 °C 20.5 °C 1009 hPa SW 0.5 km/h 4.8 km/h 97 % 0 mm
02:08 21 °C 20.5 °C 1009 hPa WSW 3.7 km/h 11.1 km/h 97 % 0 mm
02:13 21 °C 20.5 °C 1009 hPa SSW 4.7 km/h 6.4 km/h 97 % 0 mm
02:18 21 °C 20.5 °C 1009 hPa Calm   1.9 km/h 97 % 0 mm
02:23 21 °C 20.5 °C 1009 hPa SSW 0.6 km/h 3.7 km/h 97 % 0 mm
02:28 21 °C 20.5 °C 1009 hPa SSW 0.5 km/h 3.7 km/h 97 % 0 mm
02:33 21 °C 20.5 °C 1009 hPa SSW 1.8 km/h 5.6 km/h 97 % 0 mm
02:38 21 °C 20.5 °C 1009.4 hPa South 0.5 km/h 5.6 km/h 97 % 0 mm
02:43 21 °C 20.5 °C 1009.4 hPa SSW 5.3 km/h 5.6 km/h 97 % 0 mm
02:48 21 °C 20.5 °C 1009.4 hPa SSW 2.6 km/h 5.6 km/h 97 % 0 mm
02:53 20.9 °C 20.4 °C 1009.4 hPa WSW 0.2 km/h 1.9 km/h 97 % 0 mm
02:59 20.9 °C 20.4 °C 1009.4 hPa SW 1.4 km/h 5.6 km/h 97 % 0.25 mm
03:04 20.9 °C 20.4 °C 1009 hPa SSW 2.7 km/h 5.6 km/h 97 % 0.25 mm
03:09 20.9 °C 20.4 °C 1009 hPa SW 1.4 km/h 5.6 km/h 97 % 0.25 mm
03:14 20.9 °C 20.4 °C 1009 hPa NW 2.3 km/h 5.6 km/h 97 % 0.25 mm
03:19 20.9 °C 20.4 °C 1009 hPa WSW 3.1 km/h 6.4 km/h 97 % 0.25 mm
03:24 20.9 °C 20.4 °C 1009 hPa SW 1.6 km/h 11.1 km/h 97 % 0.25 mm
03:29 20.9 °C 20.4 °C 1009 hPa WSW 1.8 km/h 7.4 km/h 97 % 0.25 mm
03:34 20.9 °C 20.4 °C 1009 hPa SW 2.4 km/h 7.4 km/h 97 % 0.25 mm
03:39 20.9 °C 20.4 °C 1008.7 hPa SW 0.5 km/h 11.1 km/h 97 % 0.25 mm
03:44 20.9 °C 20.4 °C 1009 hPa SW 2.3 km/h 6.4 km/h 97 % 0.25 mm
03:49 20.9 °C 20.4 °C 1008.7 hPa WSW 1.1 km/h 3.2 km/h 97 % 0.25 mm
03:54 20.9 °C 20.6 °C 1009 hPa SW 0.2 km/h 5.6 km/h 98 % 0.25 mm
03:59 20.9 °C 20.6 °C 1009 hPa WSW 0.6 km/h 5.6 km/h 98 % 0 mm
04:04 21 °C 20.7 °C 1009 hPa WSW 1.3 km/h 3.7 km/h 98 % 0 mm
04:09 21 °C 20.7 °C 1009 hPa Calm     98 % 0 mm
04:14 21 °C 20.7 °C 1008.7 hPa SSW 2.1 km/h 5.6 km/h 98 % 0 mm
04:19 21.1 °C 20.7 °C 1008.7 hPa SSW 0.3 km/h 1.9 km/h 98 % 0 mm
04:24 21.1 °C 20.7 °C 1008.7 hPa Calm   5.6 km/h 98 % 0 mm
04:29 21.1 °C 20.7 °C 1008.7 hPa WSW 0.8 km/h 3.7 km/h 98 % 0 mm
04:34 21.1 °C 20.7 °C 1008.4 hPa SW 0.2 km/h 1.9 km/h 98 % 0 mm
04:39 21.1 °C 20.7 °C 1008.7 hPa WSW 1.3 km/h 5.6 km/h 98 % 0 mm
04:44 21.1 °C 20.7 °C 1008.7 hPa WSW 0.5 km/h 3.2 km/h 98 % 0 mm
04:49 21.1 °C 20.7 °C 1008.7 hPa WSW 0.3 km/h 3.2 km/h 98 % 0 mm
04:54 21.1 °C 20.7 °C 1008.7 hPa WSW 1.3 km/h 4.8 km/h 98 % 0 mm
04:59 21 °C 20.7 °C 1009 hPa WSW 3.5 km/h 3.7 km/h 98 % 0 mm
05:05 21.1 °C 20.7 °C 1009 hPa WSW 1.3 km/h   98 % 0 mm
05:10 21.1 °C 20.7 °C 1008.7 hPa Calm   1.9 km/h 98 % 0 mm
05:15 21.1 °C 20.7 °C 1009 hPa West 0.8 km/h 1.9 km/h 98 % 0 mm
05:20 21.1 °C 20.7 °C 1008.7 hPa Calm   3.7 km/h 98 % 0 mm
05:25 21.1 °C 20.7 °C 1009 hPa WSW 0.6 km/h 5.6 km/h 98 % 0 mm
05:30 21.1 °C 20.7 °C 1009 hPa SW 3.1 km/h 6.4 km/h 98 % 0 mm
05:35 21.1 °C 20.7 °C 1009 hPa WSW 0.8 km/h 5.6 km/h 98 % 0 mm
05:40 21.1 °C 20.7 °C 1009 hPa Calm   1.9 km/h 98 % 0 mm
05:45 21.1 °C 20.7 °C 1009 hPa SW 0.3 km/h 3.7 km/h 98 % 0 mm
05:50 21.1 °C 20.8 °C 1009 hPa SW 0.6 km/h 5.6 km/h 98 % 0 mm
05:55 21.1 °C 20.8 °C 1009 hPa WSW 0.8 km/h 5.6 km/h 98 % 0 mm
06:00 21.2 °C 20.8 °C 1009 hPa West 1.8 km/h 5.6 km/h 98 % 0 mm
06:05 21.2 °C 20.8 °C 1009 hPa WNW 0.3 km/h 1.9 km/h 98 % 0 mm
06:10 21.2 °C 20.8 °C 1009 hPa SSW 0.5 km/h 3.7 km/h 98 % 0 mm
06:15 21.2 °C 20.8 °C 1009 hPa NNW 0.2 km/h 1.9 km/h 98 % 0 mm
06:20 21.2 °C 20.8 °C 1009 hPa SW 2.9 km/h 9.3 km/h 98 % 0 mm
06:25 21.2 °C 20.9 °C 1009 hPa WSW 3.9 km/h 7.4 km/h 98 % 0 mm
06:30 21.2 °C 20.9 °C 1009 hPa West 0.6 km/h 3.7 km/h 98 % 0 mm
06:35 21.2 °C 20.9 °C 1009 hPa Calm     98 % 0 mm
06:40 21.2 °C 20.9 °C 1009 hPa Calm     98 % 0 mm
06:45 21.2 °C 20.9 °C 1009.4 hPa Calm     98 % 0 mm
06:50 21.3 °C 20.9 °C 1009.4 hPa Calm     98 % 0 mm
06:54 21.3 °C 20.9 °C 1009.4 hPa Calm     98 % 0 mm
06:59 21.4 °C 21.1 °C 1009.4 hPa SE 0.6 km/h 1.9 km/h 98 % 0 mm
07:04 21.7 °C 21.3 °C 1009 hPa SE 0.2 km/h 3.7 km/h 98 % 0 mm
07:09 21.8 °C 21.4 °C 1009.4 hPa Calm   1.9 km/h 98 % 0 mm
07:14 21.9 °C 21.6 °C 1009.4 hPa WSW 6 km/h 9.3 km/h 98 % 0 mm
07:19 22.1 °C 21.7 °C 1009.7 hPa SW 3.4 km/h 5.6 km/h 98 % 0 mm
07:24 22.2 °C 21.8 °C 1009.7 hPa SW 1 km/h 6.4 km/h 98 % 0 mm
07:29 22.2 °C 21.9 °C 1010 hPa WSW 5 km/h 6.4 km/h 98 % 0 mm
07:34 22.3 °C 21.9 °C 1010 hPa WSW 4.8 km/h 7.4 km/h 98 % 0 mm
07:39 22.3 °C 22 °C 1010 hPa SW 2.4 km/h 5.6 km/h 98 % 0 mm
07:44 22.3 °C 22 °C 1010.4 hPa SSW 5.5 km/h 9.7 km/h 98 % 0 mm
07:49 22.3 °C 22 °C 1010.4 hPa West 0.8 km/h 3.7 km/h 98 % 0 mm
07:54 22.4 °C 22.1 °C 1010.4 hPa South 1.1 km/h 5.6 km/h 98 % 0 mm
07:59 22.4 °C 22.1 °C 1010.4 hPa WNW 1.9 km/h 11.1 km/h 98 % 0 mm
08:04 22.5 °C 22.2 °C 1010.4 hPa SW 2.6 km/h 11.1 km/h 98 % 0 mm
08:09 22.6 °C 22.2 °C 1010 hPa WSW 0.8 km/h 5.6 km/h 98 % 0 mm
08:14 22.6 °C 22.2 °C 1010 hPa WSW 2.4 km/h 5.6 km/h 98 % 0 mm
08:19 22.6 °C 22.3 °C 1010 hPa WSW 3.5 km/h 5.6 km/h 98 % 0 mm
08:24 22.7 °C 22.3 °C 1010 hPa WNW 2.7 km/h 11.1 km/h 98 % 0 mm
08:29 22.7 °C 22.4 °C 1010.4 hPa WSW 2.4 km/h 6.4 km/h 98 % 0 mm
08:35 22.8 °C 22.4 °C 1010 hPa SW 7.6 km/h 11.1 km/h 98 % 0 mm
08:40 22.9 °C 22.6 °C 1010 hPa WNW 3.1 km/h 6.4 km/h 98 % 0 mm
08:45 23 °C 22.7 °C 1010.4 hPa WSW 3.9 km/h 9.7 km/h 98 % 0 mm
08:50 23.1 °C 22.6 °C 1010 hPa West 3.7 km/h 9.3 km/h 97 % 0 mm
08:55 23.1 °C 22.6 °C 1010 hPa SW 6.1 km/h 18.5 km/h 97 % 0 mm
09:00 23.1 °C 22.4 °C 1010 hPa WNW 7.4 km/h 11.1 km/h 96 % 0 mm
09:05 23.1 °C 22.4 °C 1010 hPa WSW 4.7 km/h 9.3 km/h 96 % 0 mm
09:10 23.2 °C 22.5 °C 1010.4 hPa WSW 3.1 km/h 9.7 km/h 96 % 0 mm
09:15 23.2 °C 22.4 °C 1010.4 hPa SSW 7.2 km/h 14.8 km/h 95 % 0 mm
09:20 23.2 °C 22 °C 1010.4 hPa SW 6 km/h 11.1 km/h 93 % 0 mm
09:25 23.3 °C 21.7 °C 1010.4 hPa SSW 6.9 km/h 13 km/h 91 % 0 mm
09:30 23.4 °C 21.8 °C 1010.4 hPa SW 4 km/h 7.4 km/h 91 % 0 mm
09:35 23.5 °C 21.4 °C 1010.4 hPa SW 6.1 km/h 14.8 km/h 88 % 0 mm
09:40 23.7 °C 21 °C 1010 hPa SW 9.5 km/h 18.5 km/h 85 % 0 mm
09:45 23.9 °C 21.3 °C 1010 hPa WNW 9.7 km/h 16.7 km/h 85 % 0 mm
09:50 24.3 °C 21.7 °C 1010.4 hPa SW 4 km/h 6.4 km/h 85 % 0 mm
09:55 24.7 °C 21.6 °C 1010.4 hPa NW 8.5 km/h 14.8 km/h 83 % 0 mm
10:00 25.1 °C 21.4 °C 1010 hPa WNW 4.2 km/h 11.1 km/h 80 % 0 mm
10:05 25.6 °C 21.2 °C 1010.4 hPa WNW 5.3 km/h 11.1 km/h 77 % 0 mm
10:10 25.9 °C 20.5 °C 1010.4 hPa WSW 5.3 km/h 14.8 km/h 72 % 0 mm
10:16 26.3 °C 20.6 °C 1010.4 hPa WNW 8.7 km/h 11.3 km/h 71 % 0 mm
10:21 26.6 °C 20.7 °C 1010.4 hPa WSW 11.3 km/h 19.3 km/h 70 % 0 mm
10:26 26.9 °C 20.9 °C 1010.4 hPa West 11.3 km/h 22.5 km/h 70 % 0 mm
10:31 27.2 °C 21.2 °C 1010.7 hPa West 1.6 km/h 19.3 km/h 70 % 0 mm
10:36 27.4 °C 20.3 °C 1010.4 hPa SW 9.7 km/h 16.1 km/h 65 % 0 mm
10:41 27.7 °C 20.3 °C 1010.7 hPa SW 9.7 km/h 20.9 km/h 64 % 0 mm
10:46 27.9 °C 20.2 °C 1010.7 hPa SW 9.7 km/h 20.9 km/h 63 % 0 mm
10:51 28.1 °C 20.2 °C 1010.7 hPa SW 3.2 km/h 14.5 km/h 62 % 0 mm
10:56 28.3 °C 19.8 °C 1010.7 hPa SW 8 km/h 24.1 km/h 60 % 0 mm
11:01 28.6 °C 20.3 °C 1010.7 hPa West 3.7 km/h 9.3 km/h 61 % 0 mm
11:06 28.7 °C 19.7 °C 1010.7 hPa WSW 9.8 km/h 20.4 km/h 58 % 0 mm
11:11 28.9 °C 19.8 °C 1010.7 hPa WSW 4.8 km/h 16.1 km/h 58 % 0 mm
11:16 29.1 °C 19.4 °C 1010.7 hPa WSW 8 km/h 19.3 km/h 56 % 0 mm
11:21 29.3 °C 19.9 °C 1010.7 hPa WSW 8 km/h 19.3 km/h 57 % 0 mm
11:26 29.4 °C 19.1 °C 1010.7 hPa WSW 1.6 km/h 16.1 km/h 54 % 0 mm
11:31 29.6 °C 19.3 °C 1010.7 hPa WSW 9.7 km/h 19.3 km/h 54 % 0 mm
11:36 29.6 °C 19.3 °C 1011.1 hPa West 11.3 km/h 20.9 km/h 54 % 0 mm
11:41 29.6 °C 18.7 °C 1010.7 hPa SSW 9 km/h 13 km/h 52 % 0 mm
11:46 29.6 °C 20.2 °C 1010.7 hPa SW 3.5 km/h 18.5 km/h 57 % 0 mm
11:51 29.8 °C 19.2 °C 1010.7 hPa WSW 3.2 km/h 14.5 km/h 53 % 0 mm
11:56 29.9 °C 18.9 °C 1011.1 hPa WSW 9.7 km/h 16.1 km/h 52 % 0 mm
11:57 29.9 °C 18.7 °C 1011.1 hPa SSW 11.1 km/h 20.4 km/h 51 % 0 mm
12:02 29.9 °C 19.3 °C 1011.1 hPa WSW 4.3 km/h 13 km/h 53 % 0 mm
12:07 29.8 °C 19.5 °C 1011.1 hPa West 6.3 km/h 13 km/h 54 % 0 mm
12:12 29.8 °C 18.9 °C 1011.1 hPa SW 7.1 km/h 14.8 km/h 52 % 0 mm
12:17 29.9 °C 19.3 °C 1011.1 hPa WSW 6.8 km/h 11.1 km/h 53 % 0 mm
12:22 30 °C 18.4 °C 1011.1 hPa WSW 11.6 km/h 22.5 km/h 50 % 0 mm
12:27 29.9 °C 18.4 °C 1011.1 hPa WNW 6 km/h 18.5 km/h 50 % 0 mm
12:32 30 °C 19.1 °C 1011.1 hPa WSW 8.2 km/h 14.8 km/h 52 % 0 mm
12:37 30.1 °C 19.4 °C 1011.1 hPa WNW 3.2 km/h 9.3 km/h 53 % 0 mm
12:42 30.3 °C 19 °C 1011.1 hPa West 7.4 km/h 11.3 km/h 51 % 0 mm
12:47 30.5 °C 17.9 °C 1011.1 hPa WNW 2.9 km/h 9.7 km/h 47 % 0 mm
12:53 30.6 °C 17.7 °C 1010.7 hPa WNW 4.3 km/h 16.7 km/h 46 % 0 mm
12:58 30.7 °C 17.8 °C 1011.1 hPa SSW 2.4 km/h 13 km/h 46 % 0 mm
13:03 30.9 °C 17.2 °C 1010.7 hPa West 5.3 km/h 16.7 km/h 44 % 0 mm
13:08 30.9 °C 19 °C 1010.7 hPa West 10 km/h 18.5 km/h 49 % 0 mm
13:13 31 °C 18 °C 1010.7 hPa SW 8 km/h 16.7 km/h 46 % 0 mm
13:18 31 °C 18.4 °C 1010.7 hPa WSW 5 km/h 8 km/h 47 % 0 mm
13:23 31.1 °C 17 °C 1010.7 hPa WSW 9.8 km/h 14.8 km/h 43 % 0 mm
13:28 31.1 °C 17.4 °C 1010.7 hPa West 8.4 km/h 14.8 km/h 44 % 0 mm
13:33 31.2 °C 18.2 °C 1010.7 hPa SW 5.8 km/h 12.9 km/h 46 % 0 mm
13:38 31.1 °C 16.7 °C 1010.7 hPa SW 2.9 km/h 16.7 km/h 42 % 0 mm
13:39 31.1 °C 17.4 °C 1010.7 hPa WNW 3.4 km/h 16.7 km/h 44 % 0 mm
13:43 31.1 °C 17.4 °C 1010.7 hPa WSW 0.5 km/h 5.6 km/h 44 % 0 mm
13:49 31.2 °C 17.4 °C 1010.7 hPa South 4.5 km/h 8 km/h 44 % 0 mm
13:54 31.3 °C 16.8 °C 1010.4 hPa WSW 8.7 km/h 13 km/h 42 % 0 mm
13:59 31.3 °C 17.2 °C 1010.4 hPa SSW 7.4 km/h 16.7 km/h 43 % 0 mm
14:04 31.3 °C 16.9 °C 1010.4 hPa WSW 7.6 km/h 16.7 km/h 42 % 0 mm
14:09 31.4 °C 16.9 °C 1010.4 hPa West 5.5 km/h 14.8 km/h 42 % 0 mm
14:14 31.3 °C 17.6 °C 1010.4 hPa SSW 5.3 km/h 7.4 km/h 44 % 0 mm
14:19 31.4 °C 17.3 °C 1010.4 hPa WNW 1.8 km/h 13 km/h 43 % 0 mm
14:24 31.5 °C 16.7 °C 1010.4 hPa SSW 8.4 km/h 14.5 km/h 41 % 0 mm
14:29 31.5 °C 17.4 °C 1010.4 hPa WSW 6.6 km/h 14.5 km/h 43 % 0 mm
14:34 31.6 °C 16.7 °C 1010.4 hPa WSW 8.9 km/h 18.5 km/h 41 % 0 mm
14:39 31.6 °C 17.1 °C 1010.4 hPa NW 7.2 km/h 12.9 km/h 42 % 0 mm
14:44 31.6 °C 18.9 °C 1010.4 hPa West 6.4 km/h 13 km/h 47 % 0 mm
14:49 31.7 °C 16.8 °C 1010.4 hPa WSW 9.5 km/h 18.5 km/h 41 % 0 mm
14:54 31.7 °C 17.9 °C 1010.4 hPa WSW 5.1 km/h 11.1 km/h 44 % 0 mm
14:59 31.7 °C 17.2 °C 1010.4 hPa SW 7.2 km/h 18.5 km/h 42 % 0 mm
15:04 31.6 °C 17.1 °C 1010.4 hPa SW 7.4 km/h 13 km/h 42 % 0 mm
15:09 31.5 °C 16.7 °C 1010.4 hPa WNW 6.3 km/h 13 km/h 41 % 0 mm
15:14 31.4 °C 17.3 °C 1010.4 hPa West 6.1 km/h 14.8 km/h 43 % 0 mm
15:19 31.4 °C 15.8 °C 1010.4 hPa West 11.7 km/h 20.4 km/h 39 % 0 mm
15:24 31.4 °C 16.2 °C 1010.4 hPa SSW 8.9 km/h 11.1 km/h 40 % 0 mm
15:29 31.4 °C 16.6 °C 1010.4 hPa SW 5.5 km/h 14.8 km/h 41 % 0 mm
15:34 31.5 °C 15.9 °C 1010.4 hPa SW 12.1 km/h 16.7 km/h 39 % 0 mm
15:39 31.4 °C 15.4 °C 1010.4 hPa West 11.1 km/h 18.5 km/h 38 % 0 mm
15:44 31.4 °C 16.2 °C 1010.4 hPa NW 8.4 km/h 16.7 km/h 40 % 0 mm
15:49 31.4 °C 15.4 °C 1010.4 hPa SSW 10.6 km/h 11.1 km/h 38 % 0 mm
15:54 31.4 °C 15.8 °C 1010.4 hPa WNW 11.7 km/h 18.5 km/h 39 % 0 mm
15:59 31.4 °C 15.8 °C 1010.4 hPa WSW 6.8 km/h 11.1 km/h 39 % 0 mm
16:04 31.4 °C 16.2 °C 1010.4 hPa SW 8.5 km/h 13 km/h 40 % 0 mm
16:09 31.5 °C 15.4 °C 1010.4 hPa West 9.3 km/h 16.7 km/h 38 % 0 mm
16:14 31.4 °C 15 °C 1010.4 hPa SW 14.2 km/h 25.9 km/h 37 % 0 mm
16:19 31.3 °C 14.5 °C 1010.7 hPa WSW 10.8 km/h 25.9 km/h 36 % 0 mm
16:25 31 °C 15.8 °C 1010.7 hPa West 7.1 km/h 9.7 km/h 40 % 0 mm
16:30 30.8 °C 15.2 °C 1010.7 hPa SW 11.6 km/h 18.5 km/h 39 % 0 mm
16:35 30.6 °C 15.4 °C 1010.7 hPa WSW 13.5 km/h 25.9 km/h 40 % 0 mm
16:40 30.5 °C 15 °C 1010.7 hPa WSW 9.8 km/h 18.5 km/h 39 % 0 mm
16:45 30.4 °C 15.7 °C 1010.7 hPa WNW 4.8 km/h 7.4 km/h 41 % 0 mm
16:50 30.4 °C 15.3 °C 1010.7 hPa WNW 7.7 km/h 12.9 km/h 40 % 0 mm
16:55 30.3 °C 15.2 °C 1010.7 hPa SSW 4.3 km/h 14.8 km/h 40 % 0 mm
17:00 30.3 °C 15.2 °C 1010.7 hPa SW 7.2 km/h 16.1 km/h 40 % 0 mm
17:05 30.3 °C 14.8 °C 1010.7 hPa SW 13.7 km/h 24.1 km/h 39 % 0 mm
17:10 30.1 °C 15 °C 1010.7 hPa WSW 6.4 km/h 12.9 km/h 40 % 0 mm
17:15 29.9 °C 14.9 °C 1010.7 hPa SSW 3.4 km/h 13 km/h 40 % 0 mm
17:21 29.8 °C 15.2 °C 1010.7 hPa WSW 3.5 km/h 17.7 km/h 41 % 0 mm
17:26 29.7 °C 14.3 °C 1010.7 hPa SW 11.3 km/h 22.5 km/h 39 % 0 mm
17:32 29.4 °C 14.4 °C 1010.7 hPa WNW 12.1 km/h 18.5 km/h 40 % 0 mm
17:37 29.3 °C 14.7 °C 1010.7 hPa West 3.5 km/h 14.8 km/h 41 % 0 mm
17:42 29.2 °C 14.6 °C 1010.7 hPa West 9.5 km/h 16.7 km/h 41 % 0 mm
17:47 29.1 °C 14.5 °C 1010.7 hPa SW 8.2 km/h 22.2 km/h 41 % 0 mm
17:52 28.9 °C 14.4 °C 1010.7 hPa SW 14 km/h 25.9 km/h 41 % 0 mm
17:57 28.8 °C 14.2 °C 1010.7 hPa WSW 12.2 km/h 20.4 km/h 41 % 0 mm
18:02 28.7 °C 14.5 °C 1011.1 hPa SSW 9.2 km/h 20.4 km/h 42 % 0 mm
18:07 28.6 °C 14.4 °C 1010.7 hPa SSE 6.3 km/h 11.1 km/h 42 % 0 mm
18:12 28.5 °C 13.9 °C 1011.1 hPa SW 8.2 km/h 20.4 km/h 41 % 0 mm
18:17 28.4 °C 13.9 °C 1011.1 hPa SW 10.6 km/h 18.5 km/h 41 % 0 mm
18:22 28.3 °C 14.2 °C 1011.1 hPa WSW 8.5 km/h 12.9 km/h 42 % 0 mm
18:27 28.2 °C 14.8 °C 1011.1 hPa West 7.7 km/h 14.8 km/h 44 % 0 mm
18:32 28.2 °C 14.4 °C 1011.1 hPa SW 9.2 km/h 13 km/h 43 % 0 mm
18:37 28.1 °C 14.7 °C 1011.1 hPa SW 5.1 km/h 14.8 km/h 44 % 0 mm
18:42 28.1 °C 14.7 °C 1011.4 hPa SW 7.1 km/h 13 km/h 44 % 0 mm
18:47 28 °C 14.3 °C 1011.4 hPa SW 4.5 km/h 9.3 km/h 43 % 0 mm
18:52 27.9 °C 14.6 °C 1011.4 hPa WSW 5.5 km/h 11.1 km/h 44 % 0 mm
18:57 27.8 °C 14.4 °C 1011.7 hPa SW 5.3 km/h 11.1 km/h 44 % 0 mm
19:02 27.7 °C 14.7 °C 1011.4 hPa WNW 0.8 km/h 9.3 km/h 45 % 0 mm
19:07 27.7 °C 14.7 °C 1011.7 hPa West 2.7 km/h 13 km/h 45 % 0 mm
19:12 27.6 °C 14.6 °C 1011.7 hPa West 4.3 km/h 14.8 km/h 45 % 0 mm
19:18 27.5 °C 14.8 °C 1011.7 hPa WSW 3.5 km/h 9.7 km/h 46 % 0 mm
19:23 27.4 °C 14.8 °C 1011.7 hPa SW 3.1 km/h 9.7 km/h 46 % 0 mm
19:28 27.3 °C 14.7 °C 1011.7 hPa NW 1.6 km/h 9.3 km/h 46 % 0 mm
19:33 27.3 °C 14.7 °C 1011.7 hPa WSW 6.3 km/h 11.1 km/h 46 % 0 mm
19:38 27.2 °C 14.6 °C 1011.7 hPa SW 3.5 km/h 7.4 km/h 46 % 0 mm
19:43 27.1 °C 14.5 °C 1011.7 hPa West 3.5 km/h 7.4 km/h 46 % 0 mm
19:48 27 °C 14.4 °C 1011.7 hPa WSW 2.9 km/h 5.6 km/h 46 % 0 mm
19:53 26.9 °C 14.6 °C 1011.7 hPa WSW 0.8 km/h 3.7 km/h 47 % 0 mm
19:58 26.8 °C 14.8 °C 1012.1 hPa SW 1.3 km/h 5.6 km/h 48 % 0 mm
20:03 26.7 °C 15.1 °C 1012.1 hPa Calm   1.9 km/h 49 % 0 mm
20:08 26.6 °C 15.3 °C 1012.1 hPa Calm     50 % 0 mm
20:13 26.3 °C 15.7 °C 1012.1 hPa Calm     52 % 0 mm
20:18 26.2 °C 15.6 °C 1012.1 hPa WSW 0.2 km/h 1.9 km/h 52 % 0 mm
20:23 25.9 °C 14.7 °C 1012.1 hPa WSW 1.4 km/h 3.7 km/h 50 % 0 mm
20:28 25.8 °C 14.9 °C 1012.1 hPa Calm   1.9 km/h 51 % 0 mm
20:33 25.6 °C 14.9 °C 1012.1 hPa Calm     52 % 0 mm
20:38 25.4 °C 14.8 °C 1012.1 hPa WSW 0.3 km/h 1.9 km/h 52 % 0 mm
20:44 25.2 °C 14.7 °C 1012.1 hPa Calm     52 % 0 mm
20:48 25 °C 14.8 °C 1012.1 hPa Calm     53 % 0 mm
20:54 24.8 °C 15.1 °C 1012.1 hPa Calm   1.9 km/h 55 % 0 mm
20:59 24.6 °C 15.2 °C 1012.4 hPa Calm     56 % 0 mm
21:04 24.3 °C 15.3 °C 1012.4 hPa Calm     57 % 0 mm
21:09 24.2 °C 15.4 °C 1012.4 hPa Calm     58 % 0 mm
21:14 24 °C 15.2 °C 1012.4 hPa Calm     58 % 0 mm
21:19 23.8 °C 15 °C 1012.4 hPa Calm     58 % 0 mm
21:24 23.6 °C 14.6 °C 1012.4 hPa Calm     57 % 0 mm
21:29 23.4 °C 14.7 °C 1012.4 hPa Calm     58 % 0 mm
21:34 23.2 °C 15 °C 1012.4 hPa Calm     60 % 0 mm
21:36 23.2 °C 15 °C 1012.8 hPa Calm     60 % 0 mm
21:41 23.1 °C 14.9 °C 1012.4 hPa Calm     60 % 0 mm
21:46 22.9 °C 14.9 °C 1012.4 hPa Calm     61 % 0 mm
21:51 22.7 °C 15.1 °C 1012.4 hPa Calm     62 % 0 mm
21:56 22.6 °C 14.9 °C 1012.8 hPa Calm     62 % 0 mm
22:01 22.4 °C 15.1 °C 1012.8 hPa Calm   1.9 km/h 63 % 0 mm
22:06 22.3 °C 15.2 °C 1012.8 hPa Calm   1.6 km/h 64 % 0 mm
22:11 22.2 °C 15.1 °C 1012.8 hPa Calm   1.9 km/h 64 % 0 mm
22:14 22.1 °C 15.2 °C 1012.4 hPa Calm   3.7 km/h 65 % 0 mm
22:19 22.1 °C 15.4 °C 1012.8 hPa Calm     66 % 0 mm
22:24 21.9 °C 15.8 °C 1012.8 hPa Calm   1.9 km/h 68 % 0 mm
22:29 21.8 °C 15.9 °C 1012.8 hPa WSW 0.2 km/h 1.9 km/h 69 % 0 mm
22:34 21.8 °C 15.8 °C 1012.4 hPa Calm     69 % 0 mm
22:39 21.7 °C 15.9 °C 1012.8 hPa Calm     70 % 0 mm
22:44 21.6 °C 16.1 °C 1012.4 hPa Calm     71 % 0 mm
22:49 21.4 °C 16.2 °C 1012.4 hPa WSW 1 km/h 3.7 km/h 72 % 0 mm
22:54 21.4 °C 16.3 °C 1012.8 hPa Calm     73 % 0 mm
22:59 21.3 °C 16.2 °C 1012.4 hPa Calm   1.9 km/h 73 % 0 mm
23:04 21.2 °C 16.4 °C 1012.8 hPa Calm     74 % 0 mm
23:09 21.2 °C 16.3 °C 1012.4 hPa Calm     74 % 0 mm
23:14 21.1 °C 16.4 °C 1012.4 hPa Calm     75 % 0 mm
23:19 21 °C 16.6 °C 1012.8 hPa Calm     76 % 0 mm
23:24 20.9 °C 16.6 °C 1012.8 hPa Calm     76 % 0 mm
23:29 20.9 °C 16.7 °C 1012.8 hPa Calm   1.6 km/h 77 % 0 mm
23:34 20.8 °C 16.7 °C 1012.4 hPa WSW 0.2 km/h 1.9 km/h 77 % 0 mm
23:39 20.8 °C 16.6 °C 1012.4 hPa WSW 1 km/h 5.6 km/h 77 % 0 mm
23:44 20.8 °C 16.6 °C 1012.4 hPa SSW 0.5 km/h 3.7 km/h 77 % 0 mm
23:49 20.8 °C 16.8 °C 1012.4 hPa WSW 2.1 km/h 5.6 km/h 78 % 0 mm
23:54 20.8 °C 16.8 °C 1012.4 hPa SW 2.3 km/h 5.6 km/h 78 % 0 mm
23:59 20.9 °C 16.9 °C 1012.4 hPa SSW 2.7 km/h 5.6 km/h 78 % 0 mm
Crab Meadow Weather
Compliments of Weather Underground - 3 mb

Script developed by  Jim McMurry - jmcmurry@mwt.net Adapted for the template by  Wim van der Kuil - Leuven-Template.eu

Astronomy: A year on Venus is 225 days.